createdAt,value
2022-09-23T00:00:45.236Z,64.16
2022-09-23T00:05:58.980Z,63.96
2022-09-23T00:11:05.867Z,63.82
2022-09-23T00:16:11.720Z,63.92
2022-09-23T00:21:15.757Z,64.14
2022-09-23T00:26:20.627Z,64.06
2022-09-23T00:31:25.857Z,64.27
2022-09-23T00:36:32.123Z,64.11
2022-09-23T00:41:36.060Z,63.91
2022-09-23T00:46:41.755Z,63.86
2022-09-23T00:51:51.417Z,63.67
2022-09-23T00:56:54.524Z,63.88
2022-09-23T01:01:58.497Z,63.85
2022-09-23T01:07:02.763Z,63.75
2022-09-23T01:12:12.492Z,63.58
2022-09-23T01:17:19.378Z,63.06
2022-09-23T01:22:28.497Z,62.97
2022-09-23T01:27:42.836Z,62.92
2022-09-23T01:32:58.773Z,63.18
2022-09-23T01:38:11.325Z,63.04
2022-09-23T01:43:17.096Z,62.64
2022-09-23T01:48:23.025Z,62.70
2022-09-23T01:53:33.063Z,62.77
2022-09-23T01:58:41.212Z,62.58
2022-09-23T02:03:50.005Z,62.74
2022-09-23T02:08:56.554Z,62.65
2022-09-23T02:14:03.138Z,62.62
2022-09-23T02:19:10.489Z,62.18
2022-09-23T02:24:15.745Z,62.38
2022-09-23T02:29:23.612Z,62.54
2022-09-23T02:34:36.264Z,62.14
2022-09-23T02:39:43.649Z,62.25
2022-09-23T02:44:46.658Z,62.32
2022-09-23T02:49:50.906Z,61.93
2022-09-23T02:54:53.734Z,62.03
2022-09-23T02:59:56.722Z,62.06
2022-09-23T03:05:06.942Z,62.01
2022-09-23T03:10:14.807Z,61.85
2022-09-23T03:15:23.894Z,61.81
2022-09-23T03:20:34.065Z,61.85
2022-09-23T03:25:38.637Z,62.03
2022-09-23T03:30:43.513Z,61.84
2022-09-23T03:36:10.935Z,61.97
2022-09-23T03:41:16.975Z,61.74
2022-09-23T03:46:19.830Z,61.77
2022-09-23T03:51:24.714Z,61.71
2022-09-23T03:56:27.849Z,61.86
2022-09-23T04:01:30.660Z,61.47
2022-09-23T04:06:34.726Z,61.64
2022-09-23T04:11:37.426Z,61.60
2022-09-23T04:16:40.268Z,61.74
2022-09-23T04:21:45.237Z,61.74
2022-09-23T04:26:51.321Z,61.54
2022-09-23T04:31:54.540Z,61.28
2022-09-23T04:36:58.629Z,61.43
2022-09-23T04:42:01.341Z,61.72
2022-09-23T04:47:04.361Z,61.60
2022-09-23T04:52:08.469Z,61.61
2022-09-23T04:57:11.244Z,61.35
2022-09-23T05:02:14.171Z,61.43
2022-09-23T05:07:19.114Z,61.50
2022-09-23T05:12:21.861Z,61.27
2022-09-23T05:17:24.533Z,61.43
2022-09-23T05:22:30.626Z,61.48
2022-09-23T05:27:33.278Z,61.56
2022-09-23T05:32:36.000Z,61.45
2022-09-23T05:37:40.341Z,61.24
2022-09-23T05:42:43.040Z,61.25
2022-09-23T05:47:45.686Z,60.98
2022-09-23T05:52:49.649Z,60.76
2022-09-23T05:57:52.318Z,60.55
2022-09-23T06:02:54.992Z,60.77
2022-09-23T06:07:59.288Z,60.19
2022-09-23T06:13:01.914Z,60.40
2022-09-23T06:18:05.414Z,60.01
2022-09-23T06:23:10.941Z,59.79
2022-09-23T06:28:14.486Z,59.15
2022-09-23T06:33:20.422Z,58.53
2022-09-23T06:38:31.165Z,58.19
2022-09-23T06:43:33.962Z,57.81
2022-09-23T06:48:36.570Z,57.18
2022-09-23T06:53:40.853Z,56.33
2022-09-23T06:58:43.563Z,55.74
2022-09-23T07:03:47.285Z,55.39
2022-09-23T07:08:53.156Z,55.63
2022-09-23T07:13:56.092Z,55.27
2022-09-23T07:18:59.048Z,55.00
2022-09-23T07:24:03.769Z,55.01
2022-09-23T07:29:06.550Z,54.77
2022-09-23T07:34:11.838Z,54.81
2022-09-23T07:39:16.070Z,54.88
2022-09-23T07:44:21.817Z,55.20
2022-09-23T07:49:24.541Z,55.32
2022-09-23T07:54:29.674Z,55.56
2022-09-23T07:59:32.291Z,55.45
2022-09-23T08:04:35.229Z,55.76
2022-09-23T08:09:41.593Z,55.64
2022-09-23T08:14:44.639Z,55.47
2022-09-23T08:19:47.240Z,55.91
2022-09-23T08:24:52.748Z,55.63
2022-09-23T08:29:57.226Z,55.83
2022-09-23T08:35:00.079Z,56.39
2022-09-23T08:40:04.624Z,56.27
2022-09-23T08:45:09.081Z,56.61
2022-09-23T08:50:14.875Z,56.90
2022-09-23T08:55:19.923Z,56.92
2022-09-23T09:00:24.608Z,56.94
2022-09-23T09:05:28.401Z,57.12
2022-09-23T09:10:36.726Z,57.61
2022-09-23T09:15:43.492Z,57.37
2022-09-23T09:20:50.291Z,57.45
2022-09-23T09:25:56.151Z,57.05
2022-09-23T09:31:02.440Z,57.26
2022-09-23T09:36:16.321Z,57.03
2022-09-23T09:41:21.456Z,57.13
2022-09-23T09:46:50.241Z,57.03
2022-09-23T09:52:12.969Z,56.89
2022-09-23T09:57:20.944Z,56.76
2022-09-23T10:02:28.349Z,56.71
2022-09-23T10:07:35.231Z,56.51
2022-09-23T10:12:47.194Z,56.42
2022-09-23T10:17:51.646Z,56.56
2022-09-23T10:22:56.630Z,56.73
2022-09-23T10:28:23.186Z,57.05
2022-09-23T10:33:27.997Z,57.29
2022-09-23T10:38:30.734Z,57.03
2022-09-23T10:43:56.803Z,56.84
2022-09-23T10:49:29.103Z,56.90
2022-09-23T10:54:37.806Z,56.95
2022-09-23T10:59:55.182Z,56.85
2022-09-23T11:05:20.830Z,56.88
2022-09-23T11:10:45.894Z,56.76
2022-09-23T11:15:57.160Z,56.49
2022-09-23T11:21:10.142Z,56.79
2022-09-23T11:26:26.857Z,56.76
2022-09-23T11:31:38.921Z,56.46
2022-09-23T11:36:45.306Z,56.64
2022-09-23T11:41:48.340Z,56.39
2022-09-23T11:46:56.881Z,56.28
2022-09-23T11:52:04.645Z,56.61
2022-09-23T11:57:11.546Z,56.42
2022-09-23T12:02:24.622Z,56.26
2022-09-23T12:07:35.743Z,56.41
2022-09-23T12:12:43.026Z,56.69
2022-09-23T12:18:04.969Z,56.84
2022-09-23T12:23:20.297Z,57.04
2022-09-23T12:28:26.146Z,57.05
2022-09-23T12:33:32.405Z,57.13
2022-09-23T12:38:36.849Z,56.89
2022-09-23T12:43:51.744Z,56.74
2022-09-23T12:49:03.622Z,57.00
2022-09-23T12:54:23.751Z,56.61
2022-09-23T12:59:28.214Z,56.91
2022-09-23T13:05:01.371Z,56.63
2022-09-23T13:10:09.409Z,56.77
2022-09-23T13:15:18.496Z,56.82
2022-09-23T13:20:38.329Z,56.76
2022-09-23T13:25:43.109Z,56.88
2022-09-23T13:30:49.575Z,57.47
2022-09-23T13:35:57.012Z,57.93
2022-09-23T13:41:02.428Z,58.92
2022-09-23T13:46:10.493Z,60.09
2022-09-23T13:51:20.502Z,60.71
2022-09-23T13:56:24.063Z,61.01
2022-09-23T14:01:32.409Z,61.39
2022-09-23T14:06:39.296Z,61.25
2022-09-23T14:11:42.175Z,61.10
2022-09-23T14:16:45.052Z,61.20
2022-09-23T14:21:51.273Z,60.99
2022-09-23T14:26:56.008Z,60.79
2022-09-23T14:32:03.146Z,60.29
2022-09-23T14:37:27.538Z,60.03
2022-09-23T14:42:31.080Z,60.74
2022-09-23T14:47:35.607Z,64.69
2022-09-23T14:52:49.787Z,64.31
2022-09-23T14:58:02.831Z,63.89
2022-09-23T15:03:14.586Z,63.19
2022-09-23T15:08:22.074Z,62.53
2022-09-23T15:13:28.495Z,62.15
2022-09-23T15:18:33.080Z,62.00
2022-09-23T15:23:45.400Z,61.58
2022-09-23T15:28:49.035Z,61.23
2022-09-23T15:33:52.073Z,61.02
2022-09-23T15:38:57.244Z,60.87
2022-09-23T15:44:04.446Z,60.60
2022-09-23T15:49:10.210Z,60.31
2022-09-23T15:54:14.666Z,60.25
2022-09-23T15:59:17.388Z,60.16
2022-09-23T16:04:20.414Z,60.30
2022-09-23T16:09:24.441Z,60.34
2022-09-23T16:14:27.074Z,60.61
2022-09-23T16:19:30.723Z,60.68
2022-09-23T16:24:34.767Z,60.62
2022-09-23T16:29:37.523Z,60.85
2022-09-23T16:34:40.212Z,60.95
2022-09-23T16:39:44.227Z,61.02
2022-09-23T16:44:47.047Z,61.25
2022-09-23T16:49:58.561Z,61.14
2022-09-23T16:55:02.605Z,61.48
2022-09-23T17:00:25.106Z,61.25
2022-09-23T17:05:27.791Z,61.18
2022-09-23T17:10:32.956Z,61.28
2022-09-23T17:15:37.069Z,61.47
2022-09-23T17:20:39.772Z,61.50
2022-09-23T17:25:48.361Z,61.36
2022-09-23T17:30:52.615Z,61.49
2022-09-23T17:35:56.655Z,61.53
2022-09-23T17:41:02.072Z,61.44
2022-09-23T17:46:06.442Z,61.64
2022-09-23T17:51:12.243Z,61.35
2022-09-23T17:56:17.707Z,61.51
2022-09-23T18:01:22.351Z,61.65
2022-09-23T18:06:26.340Z,61.47
2022-09-23T18:11:31.306Z,61.71
2022-09-23T18:16:36.645Z,61.65
2022-09-23T18:21:41.283Z,61.57
2022-09-23T18:26:45.915Z,61.41
2022-09-23T18:31:50.872Z,61.68
2022-09-23T18:36:55.963Z,61.66
2022-09-23T18:42:02.514Z,61.61
2022-09-23T18:47:05.255Z,61.54
2022-09-23T18:52:07.935Z,61.51
2022-09-23T18:57:13.143Z,61.40
2022-09-23T19:02:16.966Z,61.76
2022-09-23T19:07:19.683Z,61.47
2022-09-23T19:12:23.784Z,61.45
2022-09-23T19:17:26.514Z,61.73
2022-09-23T19:22:30.401Z,61.65
2022-09-23T19:27:35.192Z,61.41
2022-09-23T19:32:37.925Z,61.60
2022-09-23T19:37:40.607Z,61.60
2022-09-23T19:42:44.708Z,61.37
2022-09-23T19:47:47.339Z,61.72
2022-09-23T19:52:51.721Z,61.58
2022-09-23T19:57:55.697Z,61.64
2022-09-23T20:02:58.717Z,61.27
2022-09-23T20:08:01.935Z,61.37
2022-09-23T20:13:06.126Z,61.49
2022-09-23T20:18:10.089Z,61.55
2022-09-23T20:23:12.855Z,61.19
2022-09-23T20:28:17.440Z,61.51
2022-09-23T20:33:22.259Z,61.12
2022-09-23T20:38:24.932Z,61.21
2022-09-23T20:43:29.155Z,61.46
2022-09-23T20:48:32.311Z,61.55
2022-09-23T20:53:35.391Z,61.21
2022-09-23T20:58:40.186Z,61.12
2022-09-23T21:03:44.719Z,61.48
2022-09-23T21:08:47.655Z,61.43
2022-09-23T21:13:52.403Z,61.12
2022-09-23T21:18:55.075Z,61.35
2022-09-23T21:24:17.213Z,61.56
2022-09-23T21:29:22.991Z,61.09
2022-09-23T21:34:28.182Z,61.25
2022-09-23T21:39:30.884Z,61.16
2022-09-23T21:44:35.172Z,61.35
2022-09-23T21:49:37.848Z,61.67
2022-09-23T21:54:40.580Z,61.68
2022-09-23T21:59:44.554Z,61.85
2022-09-23T22:04:47.333Z,62.14
2022-09-23T22:09:50.113Z,62.06
2022-09-23T22:14:54.212Z,62.32
2022-09-23T22:19:57.183Z,61.79
2022-09-23T22:24:59.851Z,61.53
2022-09-23T22:30:21.468Z,61.40
2022-09-23T22:35:24.221Z,61.35
2022-09-23T22:40:27.003Z,61.19
2022-09-23T22:45:31.205Z,61.13
2022-09-23T22:50:33.955Z,61.59
2022-09-23T22:55:36.674Z,61.50
2022-09-23T23:00:40.729Z,61.47
2022-09-23T23:05:45.701Z,61.29
2022-09-23T23:10:48.592Z,61.61
2022-09-23T23:15:52.756Z,61.54
2022-09-23T23:20:57.232Z,61.51
2022-09-23T23:25:59.957Z,61.24
2022-09-23T23:31:05.433Z,61.52
2022-09-23T23:36:08.801Z,62.29
2022-09-23T23:41:13.009Z,62.13
2022-09-23T23:46:18.115Z,62.06
2022-09-23T23:51:21.591Z,62.12
2022-09-23T23:56:25.512Z,61.71
